sensor_id;sensor_type;location;lat;lon;timestamp;temperature;humidity
2391;DHT22;22957;50.824;4.360;2024-03-22T00:00:55;15.00;99.90
2391;DHT22;22957;50.824;4.360;2024-03-22T00:03:22;14.80;99.90
2391;DHT22;22957;50.824;4.360;2024-03-22T00:05:47;14.80;99.90
2391;DHT22;22957;50.824;4.360;2024-03-22T00:08:13;15.10;99.90
2391;DHT22;22957;50.824;4.360;2024-03-22T00:10:39;15.30;99.90
2391;DHT22;22957;50.824;4.360;2024-03-22T00:13:04;15.30;99.90
2391;DHT22;22957;50.824;4.360;2024-03-22T00:15:30;15.10;99.90
2391;DHT22;22957;50.824;4.360;2024-03-22T00:17:55;15.00;99.90
2391;DHT22;22957;50.824;4.360;2024-03-22T00:20:21;15.10;99.90
2391;DHT22;22957;50.824;4.360;2024-03-22T00:22:47;14.80;99.90
2391;DHT22;22957;50.824;4.360;2024-03-22T00:25:12;14.90;99.90
2391;DHT22;22957;50.824;4.360;2024-03-22T00:27:38;14.80;99.90
2391;DHT22;22957;50.824;4.360;2024-03-22T00:30:04;14.90;99.90
2391;DHT22;22957;50.824;4.360;2024-03-22T00:32:30;14.90;99.90
2391;DHT22;22957;50.824;4.360;2024-03-22T00:34:55;15.10;99.90
2391;DHT22;22957;50.824;4.360;2024-03-22T00:37:21;15.10;99.90
2391;DHT22;22957;50.824;4.360;2024-03-22T00:39:47;15.10;99.90
2391;DHT22;22957;50.824;4.360;2024-03-22T00:42:12;15.00;99.90
2391;DHT22;22957;50.824;4.360;2024-03-22T00:44:38;15.00;99.90
2391;DHT22;22957;50.824;4.360;2024-03-22T00:47:04;15.20;99.90
2391;DHT22;22957;50.824;4.360;2024-03-22T00:49:31;14.80;99.90
2391;DHT22;22957;50.824;4.360;2024-03-22T00:51:56;14.60;99.90
2391;DHT22;22957;50.824;4.360;2024-03-22T00:54:23;14.70;99.90
2391;DHT22;22957;50.824;4.360;2024-03-22T00:56:48;14.60;99.90
2391;DHT22;22957;50.824;4.360;2024-03-22T00:59:14;14.60;99.90
2391;DHT22;22957;50.824;4.360;2024-03-22T01:01:40;14.80;99.90
2391;DHT22;22957;50.824;4.360;2024-03-22T01:04:05;14.60;99.90
2391;DHT22;22957;50.824;4.360;2024-03-22T01:06:31;14.80;99.90
2391;DHT22;22957;50.824;4.360;2024-03-22T01:08:56;15.00;99.90
2391;DHT22;22957;50.824;4.360;2024-03-22T01:11:22;14.90;99.90
2391;DHT22;22957;50.824;4.360;2024-03-22T01:13:47;14.50;99.90
2391;DHT22;22957;50.824;4.360;2024-03-22T01:16:13;14.50;99.90
2391;DHT22;22957;50.824;4.360;2024-03-22T01:18:39;14.40;99.90
2391;DHT22;22957;50.824;4.360;2024-03-22T01:21:04;14.40;99.90
2391;DHT22;22957;50.824;4.360;2024-03-22T01:23:31;14.50;99.90
2391;DHT22;22957;50.824;4.360;2024-03-22T01:25:56;14.50;99.90
2391;DHT22;22957;50.824;4.360;2024-03-22T01:28:22;13.90;99.90
2391;DHT22;22957;50.824;4.360;2024-03-22T01:30:48;14.40;99.90
2391;DHT22;22957;50.824;4.360;2024-03-22T01:33:13;14.00;99.90
2391;DHT22;22957;50.824;4.360;2024-03-22T01:35:39;14.20;99.90
2391;DHT22;22957;50.824;4.360;2024-03-22T01:38:05;14.10;99.90
2391;DHT22;22957;50.824;4.360;2024-03-22T01:40:30;14.10;99.90
2391;DHT22;22957;50.824;4.360;2024-03-22T01:42:57;14.10;99.90
2391;DHT22;22957;50.824;4.360;2024-03-22T01:45:25;13.70;99.90
2391;DHT22;22957;50.824;4.360;2024-03-22T01:47:51;13.90;99.90
2391;DHT22;22957;50.824;4.360;2024-03-22T01:50:20;13.90;99.90
2391;DHT22;22957;50.824;4.360;2024-03-22T01:52:46;14.00;99.90
2391;DHT22;22957;50.824;4.360;2024-03-22T01:55:12;13.80;99.90
2391;DHT22;22957;50.824;4.360;2024-03-22T01:57:38;13.90;99.90
2391;DHT22;22957;50.824;4.360;2024-03-22T02:00:04;14.00;99.90
2391;DHT22;22957;50.824;4.360;2024-03-22T02:02:30;13.80;99.90
2391;DHT22;22957;50.824;4.360;2024-03-22T02:04:56;13.60;99.90
2391;DHT22;22957;50.824;4.360;2024-03-22T02:07:22;13.60;99.90
2391;DHT22;22957;50.824;4.360;2024-03-22T02:09:48;13.60;99.90
2391;DHT22;22957;50.824;4.360;2024-03-22T02:12:14;13.80;99.90
2391;DHT22;22957;50.824;4.360;2024-03-22T02:14:39;13.60;99.90
2391;DHT22;22957;50.824;4.360;2024-03-22T02:17:05;13.80;99.90
2391;DHT22;22957;50.824;4.360;2024-03-22T02:19:31;13.70;99.90
2391;DHT22;22957;50.824;4.360;2024-03-22T02:21:56;13.30;99.90
2391;DHT22;22957;50.824;4.360;2024-03-22T02:24:22;13.40;99.90
2391;DHT22;22957;50.824;4.360;2024-03-22T02:26:47;13.70;99.90
2391;DHT22;22957;50.824;4.360;2024-03-22T02:29:13;13.40;99.90
2391;DHT22;22957;50.824;4.360;2024-03-22T02:31:39;13.40;99.90
2391;DHT22;22957;50.824;4.360;2024-03-22T02:34:04;13.40;99.90
2391;DHT22;22957;50.824;4.360;2024-03-22T02:36:30;13.50;99.90
2391;DHT22;22957;50.824;4.360;2024-03-22T02:38:56;13.60;99.90
2391;DHT22;22957;50.824;4.360;2024-03-22T02:41:21;13.70;99.90
2391;DHT22;22957;50.824;4.360;2024-03-22T02:43:47;13.40;99.90
2391;DHT22;22957;50.824;4.360;2024-03-22T02:46:13;13.80;99.90
2391;DHT22;22957;50.824;4.360;2024-03-22T02:48:38;13.90;99.90
2391;DHT22;22957;50.824;4.360;2024-03-22T02:51:04;13.70;99.90
2391;DHT22;22957;50.824;4.360;2024-03-22T02:53:30;13.60;99.90
2391;DHT22;22957;50.824;4.360;2024-03-22T02:55:55;13.90;99.90
2391;DHT22;22957;50.824;4.360;2024-03-22T02:58:21;14.00;99.90
2391;DHT22;22957;50.824;4.360;2024-03-22T03:00:47;13.80;99.90
2391;DHT22;22957;50.824;4.360;2024-03-22T03:03:13;14.00;99.90
2391;DHT22;22957;50.824;4.360;2024-03-22T03:05:39;14.10;99.90
2391;DHT22;22957;50.824;4.360;2024-03-22T03:08:06;13.80;99.90
2391;DHT22;22957;50.824;4.360;2024-03-22T03:10:32;14.00;99.90
2391;DHT22;22957;50.824;4.360;2024-03-22T03:12:58;13.80;99.90
2391;DHT22;22957;50.824;4.360;2024-03-22T03:15:23;13.40;99.90
2391;DHT22;22957;50.824;4.360;2024-03-22T03:17:49;13.90;99.90
2391;DHT22;22957;50.824;4.360;2024-03-22T03:20:17;13.90;99.90
2391;DHT22;22957;50.824;4.360;2024-03-22T03:22:42;13.70;99.90
2391;DHT22;22957;50.824;4.360;2024-03-22T03:25:08;13.70;99.90
2391;DHT22;22957;50.824;4.360;2024-03-22T03:27:34;13.90;99.90
2391;DHT22;22957;50.824;4.360;2024-03-22T03:30:00;13.40;99.90
2391;DHT22;22957;50.824;4.360;2024-03-22T03:32:26;13.60;99.90
2391;DHT22;22957;50.824;4.360;2024-03-22T03:34:52;13.90;99.90
2391;DHT22;22957;50.824;4.360;2024-03-22T03:37:18;13.90;99.90
2391;DHT22;22957;50.824;4.360;2024-03-22T03:39:43;13.70;99.90
2391;DHT22;22957;50.824;4.360;2024-03-22T03:42:09;13.60;99.90
2391;DHT22;22957;50.824;4.360;2024-03-22T03:44:35;13.60;99.90
2391;DHT22;22957;50.824;4.360;2024-03-22T03:47:01;13.20;99.90
2391;DHT22;22957;50.824;4.360;2024-03-22T03:49:27;13.30;99.90
2391;DHT22;22957;50.824;4.360;2024-03-22T03:51:53;13.40;99.90
2391;DHT22;22957;50.824;4.360;2024-03-22T03:54:19;13.60;99.90
2391;DHT22;22957;50.824;4.360;2024-03-22T03:56:44;13.60;99.90
2391;DHT22;22957;50.824;4.360;2024-03-22T03:59:10;13.60;99.90
2391;DHT22;22957;50.824;4.360;2024-03-22T04:01:35;13.40;99.90
2391;DHT22;22957;50.824;4.360;2024-03-22T04:04:02;13.50;99.90
2391;DHT22;22957;50.824;4.360;2024-03-22T04:06:28;13.70;99.90
2391;DHT22;22957;50.824;4.360;2024-03-22T04:08:53;13.60;99.90
2391;DHT22;22957;50.824;4.360;2024-03-22T04:11:19;13.60;99.90
2391;DHT22;22957;50.824;4.360;2024-03-22T04:13:45;13.80;99.90
2391;DHT22;22957;50.824;4.360;2024-03-22T04:16:10;13.70;99.90
2391;DHT22;22957;50.824;4.360;2024-03-22T04:18:36;13.50;99.90
2391;DHT22;22957;50.824;4.360;2024-03-22T04:21:02;13.50;99.90
2391;DHT22;22957;50.824;4.360;2024-03-22T04:23:27;13.20;99.90
2391;DHT22;22957;50.824;4.360;2024-03-22T04:26:00;13.60;99.90
2391;DHT22;22957;50.824;4.360;2024-03-22T04:28:26;13.90;99.90
2391;DHT22;22957;50.824;4.360;2024-03-22T04:31:00;13.80;99.90
2391;DHT22;22957;50.824;4.360;2024-03-22T04:33:26;13.60;99.90
2391;DHT22;22957;50.824;4.360;2024-03-22T04:35:53;13.60;99.90
2391;DHT22;22957;50.824;4.360;2024-03-22T04:38:19;13.60;99.90
2391;DHT22;22957;50.824;4.360;2024-03-22T04:40:44;13.50;99.90
2391;DHT22;22957;50.824;4.360;2024-03-22T04:43:10;13.60;99.90
2391;DHT22;22957;50.824;4.360;2024-03-22T04:45:36;13.40;99.90
2391;DHT22;22957;50.824;4.360;2024-03-22T04:48:03;13.70;99.90
2391;DHT22;22957;50.824;4.360;2024-03-22T04:50:29;13.60;99.90
2391;DHT22;22957;50.824;4.360;2024-03-22T04:52:55;13.40;99.90
2391;DHT22;22957;50.824;4.360;2024-03-22T04:55:21;13.40;99.90
2391;DHT22;22957;50.824;4.360;2024-03-22T04:57:46;13.30;99.90
2391;DHT22;22957;50.824;4.360;2024-03-22T05:00:12;13.50;99.90
2391;DHT22;22957;50.824;4.360;2024-03-22T05:02:38;13.50;99.90
2391;DHT22;22957;50.824;4.360;2024-03-22T05:05:04;13.30;99.90
2391;DHT22;22957;50.824;4.360;2024-03-22T05:07:29;13.30;99.90
2391;DHT22;22957;50.824;4.360;2024-03-22T05:09:55;13.40;99.90
2391;DHT22;22957;50.824;4.360;2024-03-22T05:12:21;13.30;99.90
2391;DHT22;22957;50.824;4.360;2024-03-22T05:14:46;13.30;99.90
2391;DHT22;22957;50.824;4.360;2024-03-22T05:17:12;13.20;99.90
2391;DHT22;22957;50.824;4.360;2024-03-22T05:19:37;13.10;99.90
2391;DHT22;22957;50.824;4.360;2024-03-22T05:22:03;12.90;99.90
2391;DHT22;22957;50.824;4.360;2024-03-22T05:24:29;12.80;99.90
2391;DHT22;22957;50.824;4.360;2024-03-22T05:26:54;12.80;99.90
2391;DHT22;22957;50.824;4.360;2024-03-22T05:29:20;13.20;99.90
2391;DHT22;22957;50.824;4.360;2024-03-22T05:31:49;13.20;99.90
2391;DHT22;22957;50.824;4.360;2024-03-22T05:34:16;13.10;99.90
2391;DHT22;22957;50.824;4.360;2024-03-22T05:36:42;13.00;99.90
2391;DHT22;22957;50.824;4.360;2024-03-22T05:39:08;13.30;99.90
2391;DHT22;22957;50.824;4.360;2024-03-22T05:41:33;13.00;99.90
2391;DHT22;22957;50.824;4.360;2024-03-22T05:43:59;13.40;99.90
2391;DHT22;22957;50.824;4.360;2024-03-22T05:46:24;13.20;99.90
2391;DHT22;22957;50.824;4.360;2024-03-22T05:48:50;13.20;99.90
2391;DHT22;22957;50.824;4.360;2024-03-22T05:51:17;13.60;99.90
2391;DHT22;22957;50.824;4.360;2024-03-22T05:53:43;13.10;99.90
2391;DHT22;22957;50.824;4.360;2024-03-22T05:56:09;13.10;99.90
2391;DHT22;22957;50.824;4.360;2024-03-22T05:58:35;13.30;99.90
2391;DHT22;22957;50.824;4.360;2024-03-22T06:01:02;12.70;99.90
2391;DHT22;22957;50.824;4.360;2024-03-22T06:03:29;12.80;99.90
2391;DHT22;22957;50.824;4.360;2024-03-22T06:05:54;12.80;99.90
2391;DHT22;22957;50.824;4.360;2024-03-22T06:08:24;12.70;99.90
2391;DHT22;22957;50.824;4.360;2024-03-22T06:10:52;12.80;99.90
2391;DHT22;22957;50.824;4.360;2024-03-22T06:13:17;12.70;99.90
2391;DHT22;22957;50.824;4.360;2024-03-22T06:15:43;12.90;99.90
2391;DHT22;22957;50.824;4.360;2024-03-22T06:18:12;12.60;99.90
2391;DHT22;22957;50.824;4.360;2024-03-22T06:20:37;12.60;99.90
2391;DHT22;22957;50.824;4.360;2024-03-22T06:23:03;12.70;99.90
2391;DHT22;22957;50.824;4.360;2024-03-22T06:25:29;12.90;99.90
2391;DHT22;22957;50.824;4.360;2024-03-22T06:27:55;13.10;99.90
2391;DHT22;22957;50.824;4.360;2024-03-22T06:30:20;12.60;99.90
2391;DHT22;22957;50.824;4.360;2024-03-22T06:32:46;12.80;99.90
2391;DHT22;22957;50.824;4.360;2024-03-22T06:35:12;13.20;99.90
2391;DHT22;22957;50.824;4.360;2024-03-22T06:37:39;12.80;99.90
2391;DHT22;22957;50.824;4.360;2024-03-22T06:40:06;12.70;99.90
2391;DHT22;22957;50.824;4.360;2024-03-22T06:42:32;12.80;99.90
2391;DHT22;22957;50.824;4.360;2024-03-22T06:44:57;12.50;99.90
2391;DHT22;22957;50.824;4.360;2024-03-22T06:47:23;12.70;99.90
2391;DHT22;22957;50.824;4.360;2024-03-22T06:49:49;12.90;99.90
2391;DHT22;22957;50.824;4.360;2024-03-22T06:52:14;12.70;99.90
2391;DHT22;22957;50.824;4.360;2024-03-22T06:54:41;12.80;99.90
2391;DHT22;22957;50.824;4.360;2024-03-22T06:57:06;12.80;99.90
2391;DHT22;22957;50.824;4.360;2024-03-22T06:59:32;13.10;99.90
2391;DHT22;22957;50.824;4.360;2024-03-22T07:01:58;13.00;99.90
2391;DHT22;22957;50.824;4.360;2024-03-22T07:04:24;13.30;99.90
2391;DHT22;22957;50.824;4.360;2024-03-22T07:06:49;13.40;99.90
2391;DHT22;22957;50.824;4.360;2024-03-22T07:09:15;13.50;99.90
2391;DHT22;22957;50.824;4.360;2024-03-22T07:11:41;13.10;99.90
2391;DHT22;22957;50.824;4.360;2024-03-22T07:14:06;12.90;99.90
2391;DHT22;22957;50.824;4.360;2024-03-22T07:16:32;13.10;99.90
2391;DHT22;22957;50.824;4.360;2024-03-22T07:18:58;13.00;99.90
2391;DHT22;22957;50.824;4.360;2024-03-22T07:21:23;13.20;99.90
2391;DHT22;22957;50.824;4.360;2024-03-22T07:23:49;13.30;99.90
2391;DHT22;22957;50.824;4.360;2024-03-22T07:26:15;13.00;99.90
2391;DHT22;22957;50.824;4.360;2024-03-22T07:28:41;13.10;99.90
2391;DHT22;22957;50.824;4.360;2024-03-22T07:31:06;13.00;99.90
2391;DHT22;22957;50.824;4.360;2024-03-22T07:33:33;13.50;99.90
2391;DHT22;22957;50.824;4.360;2024-03-22T07:36:04;13.40;99.90
2391;DHT22;22957;50.824;4.360;2024-03-22T07:38:30;13.20;99.90
2391;DHT22;22957;50.824;4.360;2024-03-22T07:40:56;13.10;99.90
2391;DHT22;22957;50.824;4.360;2024-03-22T07:43:22;12.90;99.90
2391;DHT22;22957;50.824;4.360;2024-03-22T07:45:47;12.70;99.90
2391;DHT22;22957;50.824;4.360;2024-03-22T07:48:13;13.20;99.90
2391;DHT22;22957;50.824;4.360;2024-03-22T07:50:39;13.10;99.90
2391;DHT22;22957;50.824;4.360;2024-03-22T07:53:04;13.10;99.90
2391;DHT22;22957;50.824;4.360;2024-03-22T07:55:30;13.00;99.90
2391;DHT22;22957;50.824;4.360;2024-03-22T07:57:55;13.30;99.90
2391;DHT22;22957;50.824;4.360;2024-03-22T08:00:23;12.90;99.90
2391;DHT22;22957;50.824;4.360;2024-03-22T08:02:51;13.10;99.90
2391;DHT22;22957;50.824;4.360;2024-03-22T08:05:16;13.20;99.90
2391;DHT22;22957;50.824;4.360;2024-03-22T08:07:42;13.30;99.90
2391;DHT22;22957;50.824;4.360;2024-03-22T08:10:09;13.10;99.90
2391;DHT22;22957;50.824;4.360;2024-03-22T08:12:35;12.90;99.90
2391;DHT22;22957;50.824;4.360;2024-03-22T08:15:00;12.90;99.90
2391;DHT22;22957;50.824;4.360;2024-03-22T08:17:26;13.30;99.90
2391;DHT22;22957;50.824;4.360;2024-03-22T08:19:51;13.30;99.90
2391;DHT22;22957;50.824;4.360;2024-03-22T08:22:17;12.90;99.90
2391;DHT22;22957;50.824;4.360;2024-03-22T08:24:43;13.00;99.90
2391;DHT22;22957;50.824;4.360;2024-03-22T08:27:09;13.40;99.90
2391;DHT22;22957;50.824;4.360;2024-03-22T08:29:34;13.00;99.90
2391;DHT22;22957;50.824;4.360;2024-03-22T08:32:00;13.40;99.90
2391;DHT22;22957;50.824;4.360;2024-03-22T08:34:28;12.90;99.90
2391;DHT22;22957;50.824;4.360;2024-03-22T08:36:54;13.30;99.90
2391;DHT22;22957;50.824;4.360;2024-03-22T08:39:19;13.50;99.90
2391;DHT22;22957;50.824;4.360;2024-03-22T08:41:45;13.70;99.90
2391;DHT22;22957;50.824;4.360;2024-03-22T08:44:11;14.10;99.90
2391;DHT22;22957;50.824;4.360;2024-03-22T08:46:37;13.90;99.90
2391;DHT22;22957;50.824;4.360;2024-03-22T08:49:02;14.10;99.90
2391;DHT22;22957;50.824;4.360;2024-03-22T08:51:28;13.80;99.90
2391;DHT22;22957;50.824;4.360;2024-03-22T08:53:55;14.20;99.90
2391;DHT22;22957;50.824;4.360;2024-03-22T08:56:20;14.20;99.90
2391;DHT22;22957;50.824;4.360;2024-03-22T08:58:46;13.70;99.90
2391;DHT22;22957;50.824;4.360;2024-03-22T09:01:11;13.90;99.90
2391;DHT22;22957;50.824;4.360;2024-03-22T09:03:37;14.10;99.90
2391;DHT22;22957;50.824;4.360;2024-03-22T09:06:03;14.20;99.90
2391;DHT22;22957;50.824;4.360;2024-03-22T09:08:29;13.80;99.90
2391;DHT22;22957;50.824;4.360;2024-03-22T09:10:55;13.90;99.90
2391;DHT22;22957;50.824;4.360;2024-03-22T09:13:20;14.00;99.90
2391;DHT22;22957;50.824;4.360;2024-03-22T09:15:46;14.30;99.90
2391;DHT22;22957;50.824;4.360;2024-03-22T09:18:12;14.30;99.90
2391;DHT22;22957;50.824;4.360;2024-03-22T09:20:37;14.30;99.90
2391;DHT22;22957;50.824;4.360;2024-03-22T09:23:03;14.60;99.90
2391;DHT22;22957;50.824;4.360;2024-03-22T09:25:29;14.60;99.90
2391;DHT22;22957;50.824;4.360;2024-03-22T09:27:55;14.20;99.90
2391;DHT22;22957;50.824;4.360;2024-03-22T09:30:20;14.30;99.90
2391;DHT22;22957;50.824;4.360;2024-03-22T09:32:47;14.40;99.90
2391;DHT22;22957;50.824;4.360;2024-03-22T09:35:13;14.50;99.90
2391;DHT22;22957;50.824;4.360;2024-03-22T09:37:43;14.60;99.90
2391;DHT22;22957;50.824;4.360;2024-03-22T09:40:09;14.80;99.90
2391;DHT22;22957;50.824;4.360;2024-03-22T09:42:37;15.30;99.90
2391;DHT22;22957;50.824;4.360;2024-03-22T09:45:07;15.40;99.90
2391;DHT22;22957;50.824;4.360;2024-03-22T09:47:34;15.30;99.90
2391;DHT22;22957;50.824;4.360;2024-03-22T09:50:01;14.80;99.90
2391;DHT22;22957;50.824;4.360;2024-03-22T09:52:28;15.50;99.90
2391;DHT22;22957;50.824;4.360;2024-03-22T09:54:54;15.70;99.90
2391;DHT22;22957;50.824;4.360;2024-03-22T09:57:21;15.10;99.90
2391;DHT22;22957;50.824;4.360;2024-03-22T09:59:48;15.30;99.90
2391;DHT22;22957;50.824;4.360;2024-03-22T10:02:13;15.70;99.90
2391;DHT22;22957;50.824;4.360;2024-03-22T10:04:40;15.70;99.90
2391;DHT22;22957;50.824;4.360;2024-03-22T10:07:06;15.60;99.90
2391;DHT22;22957;50.824;4.360;2024-03-22T10:09:32;15.50;99.90
2391;DHT22;22957;50.824;4.360;2024-03-22T10:11:58;15.30;99.90
2391;DHT22;22957;50.824;4.360;2024-03-22T10:14:24;15.50;99.90
2391;DHT22;22957;50.824;4.360;2024-03-22T10:16:53;15.30;99.90
2391;DHT22;22957;50.824;4.360;2024-03-22T10:19:23;15.70;99.90
2391;DHT22;22957;50.824;4.360;2024-03-22T10:22:00;15.60;99.90
2391;DHT22;22957;50.824;4.360;2024-03-22T10:24:26;15.80;99.90
2391;DHT22;22957;50.824;4.360;2024-03-22T10:26:52;15.80;99.90
2391;DHT22;22957;50.824;4.360;2024-03-22T10:29:18;15.80;99.90
2391;DHT22;22957;50.824;4.360;2024-03-22T10:31:45;16.20;99.90
2391;DHT22;22957;50.824;4.360;2024-03-22T10:34:13;16.20;99.90
2391;DHT22;22957;50.824;4.360;2024-03-22T10:36:40;15.40;99.90
2391;DHT22;22957;50.824;4.360;2024-03-22T10:39:06;15.60;99.90
2391;DHT22;22957;50.824;4.360;2024-03-22T10:41:33;15.50;99.90
2391;DHT22;22957;50.824;4.360;2024-03-22T10:43:59;15.30;99.90
2391;DHT22;22957;50.824;4.360;2024-03-22T10:46:30;15.90;99.90
2391;DHT22;22957;50.824;4.360;2024-03-22T10:48:57;15.90;99.90
2391;DHT22;22957;50.824;4.360;2024-03-22T10:51:24;15.70;99.90
2391;DHT22;22957;50.824;4.360;2024-03-22T10:53:53;15.90;99.90
2391;DHT22;22957;50.824;4.360;2024-03-22T10:56:21;16.60;99.90
2391;DHT22;22957;50.824;4.360;2024-03-22T10:58:48;16.60;99.90
2391;DHT22;22957;50.824;4.360;2024-03-22T11:01:25;16.50;99.90
2391;DHT22;22957;50.824;4.360;2024-03-22T11:04:04;16.50;99.90
2391;DHT22;22957;50.824;4.360;2024-03-22T11:06:31;16.40;99.90
2391;DHT22;22957;50.824;4.360;2024-03-22T11:09:00;15.70;99.90
2391;DHT22;22957;50.824;4.360;2024-03-22T11:11:28;16.30;99.90
2391;DHT22;22957;50.824;4.360;2024-03-22T11:13:54;15.90;99.90
2391;DHT22;22957;50.824;4.360;2024-03-22T11:16:21;15.60;99.90
2391;DHT22;22957;50.824;4.360;2024-03-22T11:18:47;15.30;99.90
2391;DHT22;22957;50.824;4.360;2024-03-22T11:21:14;15.50;99.90
2391;DHT22;22957;50.824;4.360;2024-03-22T11:23:40;16.00;99.90
2391;DHT22;22957;50.824;4.360;2024-03-22T11:26:06;15.90;99.90
2391;DHT22;22957;50.824;4.360;2024-03-22T11:28:33;15.80;99.90
2391;DHT22;22957;50.824;4.360;2024-03-22T11:30:59;15.90;99.90
2391;DHT22;22957;50.824;4.360;2024-03-22T11:33:24;16.00;99.90
2391;DHT22;22957;50.824;4.360;2024-03-22T11:35:52;15.70;99.90
2391;DHT22;22957;50.824;4.360;2024-03-22T11:38:18;15.90;99.90
2391;DHT22;22957;50.824;4.360;2024-03-22T11:40:44;16.00;99.90
2391;DHT22;22957;50.824;4.360;2024-03-22T11:43:11;16.70;99.90
2391;DHT22;22957;50.824;4.360;2024-03-22T11:45:39;16.60;99.90
2391;DHT22;22957;50.824;4.360;2024-03-22T11:48:05;16.00;99.90
2391;DHT22;22957;50.824;4.360;2024-03-22T11:50:31;16.40;99.90
2391;DHT22;22957;50.824;4.360;2024-03-22T11:52:57;15.90;99.90
2391;DHT22;22957;50.824;4.360;2024-03-22T11:55:27;15.80;99.90
2391;DHT22;22957;50.824;4.360;2024-03-22T11:57:53;16.20;99.90
2391;DHT22;22957;50.824;4.360;2024-03-22T12:00:18;15.50;99.90
2391;DHT22;22957;50.824;4.360;2024-03-22T12:02:45;15.70;99.90
2391;DHT22;22957;50.824;4.360;2024-03-22T12:05:11;15.90;99.90
2391;DHT22;22957;50.824;4.360;2024-03-22T12:07:37;16.10;99.90
2391;DHT22;22957;50.824;4.360;2024-03-22T12:10:03;16.20;99.90
2391;DHT22;22957;50.824;4.360;2024-03-22T12:12:29;15.80;99.90
2391;DHT22;22957;50.824;4.360;2024-03-22T12:14:55;15.70;99.90
2391;DHT22;22957;50.824;4.360;2024-03-22T12:17:21;15.40;99.90
2391;DHT22;22957;50.824;4.360;2024-03-22T12:19:46;15.80;99.90
2391;DHT22;22957;50.824;4.360;2024-03-22T12:22:13;15.80;99.90
2391;DHT22;22957;50.824;4.360;2024-03-22T12:24:38;15.70;99.90
2391;DHT22;22957;50.824;4.360;2024-03-22T12:27:04;15.80;99.90
2391;DHT22;22957;50.824;4.360;2024-03-22T12:29:32;15.80;99.90
2391;DHT22;22957;50.824;4.360;2024-03-22T12:31:58;15.70;99.90
2391;DHT22;22957;50.824;4.360;2024-03-22T12:34:27;15.70;99.90
2391;DHT22;22957;50.824;4.360;2024-03-22T12:36:52;15.50;99.90
2391;DHT22;22957;50.824;4.360;2024-03-22T12:39:18;15.60;99.90
2391;DHT22;22957;50.824;4.360;2024-03-22T12:41:44;15.30;99.90
2391;DHT22;22957;50.824;4.360;2024-03-22T12:44:10;15.30;99.90
2391;DHT22;22957;50.824;4.360;2024-03-22T12:46:35;15.60;99.90
2391;DHT22;22957;50.824;4.360;2024-03-22T12:49:01;15.60;99.90
2391;DHT22;22957;50.824;4.360;2024-03-22T12:51:26;15.60;99.90
2391;DHT22;22957;50.824;4.360;2024-03-22T12:53:52;15.30;99.90
2391;DHT22;22957;50.824;4.360;2024-03-22T12:56:18;15.60;99.90
2391;DHT22;22957;50.824;4.360;2024-03-22T12:58:43;15.60;99.90
2391;DHT22;22957;50.824;4.360;2024-03-22T13:01:09;15.30;99.90
2391;DHT22;22957;50.824;4.360;2024-03-22T13:03:36;15.50;99.90
2391;DHT22;22957;50.824;4.360;2024-03-22T13:06:03;15.60;99.90
2391;DHT22;22957;50.824;4.360;2024-03-22T13:08:31;15.50;99.90
2391;DHT22;22957;50.824;4.360;2024-03-22T13:10:57;15.40;99.90
2391;DHT22;22957;50.824;4.360;2024-03-22T13:13:22;15.50;99.90
2391;DHT22;22957;50.824;4.360;2024-03-22T13:15:48;15.40;99.90
2391;DHT22;22957;50.824;4.360;2024-03-22T13:18:14;14.90;99.90
2391;DHT22;22957;50.824;4.360;2024-03-22T13:20:40;15.10;99.90
2391;DHT22;22957;50.824;4.360;2024-03-22T13:23:06;15.60;99.90
2391;DHT22;22957;50.824;4.360;2024-03-22T13:25:35;15.50;99.90
2391;DHT22;22957;50.824;4.360;2024-03-22T13:28:03;15.90;99.90
2391;DHT22;22957;50.824;4.360;2024-03-22T13:30:29;15.70;99.90
2391;DHT22;22957;50.824;4.360;2024-03-22T13:32:55;15.90;99.90
2391;DHT22;22957;50.824;4.360;2024-03-22T13:35:21;15.70;99.90
2391;DHT22;22957;50.824;4.360;2024-03-22T13:37:47;15.70;99.90
2391;DHT22;22957;50.824;4.360;2024-03-22T13:40:13;15.60;99.90
2391;DHT22;22957;50.824;4.360;2024-03-22T13:42:38;15.60;99.90
2391;DHT22;22957;50.824;4.360;2024-03-22T13:45:04;15.50;99.90
2391;DHT22;22957;50.824;4.360;2024-03-22T13:47:30;16.00;99.90
2391;DHT22;22957;50.824;4.360;2024-03-22T13:49:55;15.70;99.90
2391;DHT22;22957;50.824;4.360;2024-03-22T13:52:21;15.10;99.90
2391;DHT22;22957;50.824;4.360;2024-03-22T13:54:47;15.20;99.90
2391;DHT22;22957;50.824;4.360;2024-03-22T13:57:12;15.60;99.90
2391;DHT22;22957;50.824;4.360;2024-03-22T13:59:38;15.50;99.90
2391;DHT22;22957;50.824;4.360;2024-03-22T14:02:06;15.70;99.90
2391;DHT22;22957;50.824;4.360;2024-03-22T14:04:33;15.20;99.90
2391;DHT22;22957;50.824;4.360;2024-03-22T14:06:58;15.30;99.90
2391;DHT22;22957;50.824;4.360;2024-03-22T14:09:24;15.40;99.90
2391;DHT22;22957;50.824;4.360;2024-03-22T14:11:51;15.20;99.90
2391;DHT22;22957;50.824;4.360;2024-03-22T14:14:17;15.30;99.90
2391;DHT22;22957;50.824;4.360;2024-03-22T14:16:42;15.90;99.90
2391;DHT22;22957;50.824;4.360;2024-03-22T14:19:08;16.10;99.90
2391;DHT22;22957;50.824;4.360;2024-03-22T14:21:34;16.00;99.90
2391;DHT22;22957;50.824;4.360;2024-03-22T14:24:00;15.70;99.90
2391;DHT22;22957;50.824;4.360;2024-03-22T14:26:25;16.10;99.90
2391;DHT22;22957;50.824;4.360;2024-03-22T14:28:51;15.40;99.90
2391;DHT22;22957;50.824;4.360;2024-03-22T14:31:18;15.50;99.90
2391;DHT22;22957;50.824;4.360;2024-03-22T14:33:44;15.50;99.90
2391;DHT22;22957;50.824;4.360;2024-03-22T14:36:10;15.40;99.90
2391;DHT22;22957;50.824;4.360;2024-03-22T14:38:37;15.00;99.90
2391;DHT22;22957;50.824;4.360;2024-03-22T14:41:03;15.10;99.90
2391;DHT22;22957;50.824;4.360;2024-03-22T14:43:29;15.40;99.90
2391;DHT22;22957;50.824;4.360;2024-03-22T14:45:57;15.90;99.90
2391;DHT22;22957;50.824;4.360;2024-03-22T14:48:23;15.70;99.90
2391;DHT22;22957;50.824;4.360;2024-03-22T14:50:50;15.40;99.90
2391;DHT22;22957;50.824;4.360;2024-03-22T14:53:19;15.90;99.90
2391;DHT22;22957;50.824;4.360;2024-03-22T14:55:59;15.30;99.90
2391;DHT22;22957;50.824;4.360;2024-03-22T14:58:26;15.50;99.90
2391;DHT22;22957;50.824;4.360;2024-03-22T15:00:57;14.90;99.90
2391;DHT22;22957;50.824;4.360;2024-03-22T15:03:23;14.60;99.90
2391;DHT22;22957;50.824;4.360;2024-03-22T15:05:52;14.60;99.90
2391;DHT22;22957;50.824;4.360;2024-03-22T15:08:19;14.20;99.90
2391;DHT22;22957;50.824;4.360;2024-03-22T15:10:45;14.00;99.90
2391;DHT22;22957;50.824;4.360;2024-03-22T15:13:11;14.20;99.90
2391;DHT22;22957;50.824;4.360;2024-03-22T15:15:37;14.50;99.90
2391;DHT22;22957;50.824;4.360;2024-03-22T15:18:04;14.50;99.90
2391;DHT22;22957;50.824;4.360;2024-03-22T15:20:31;14.50;99.90
2391;DHT22;22957;50.824;4.360;2024-03-22T15:22:57;14.20;99.90
2391;DHT22;22957;50.824;4.360;2024-03-22T15:25:23;14.00;99.90
2391;DHT22;22957;50.824;4.360;2024-03-22T15:27:49;13.70;99.90
2391;DHT22;22957;50.824;4.360;2024-03-22T15:30:14;13.70;99.90
2391;DHT22;22957;50.824;4.360;2024-03-22T15:32:41;13.60;99.90
2391;DHT22;22957;50.824;4.360;2024-03-22T15:35:07;14.00;99.90
2391;DHT22;22957;50.824;4.360;2024-03-22T15:37:34;14.00;99.90